createdAt,value
2022-09-22T06:14:47.130Z,315.00
2022-09-22T06:24:46.991Z,135.00
2022-09-22T06:34:47.085Z,114.70
2022-09-22T06:44:46.999Z,123.21
2022-09-22T06:54:47.120Z,123.62
2022-09-22T07:04:46.893Z,125.49
2022-09-22T07:14:47.176Z,102.95
2022-09-22T07:24:46.942Z,90.33
2022-09-22T07:34:47.045Z,114.68
2022-09-22T07:44:47.113Z,110.72
2022-09-22T07:54:47.283Z,111.80
2022-09-22T08:04:47.525Z,94.47
2022-09-22T08:14:47.443Z,114.50
2022-09-22T08:24:47.523Z,103.89
2022-09-22T08:34:47.300Z,119.21
2022-09-22T08:44:47.385Z,108.54
2022-09-22T08:54:47.515Z,100.36
2022-09-22T09:04:47.469Z,131.77
2022-09-22T09:14:47.564Z,88.97
2022-09-22T09:34:48.183Z,90.31
2022-09-22T09:44:48.282Z,99.01
2022-09-22T09:54:47.612Z,110.69
2022-09-22T10:04:47.734Z,161.50
2022-09-22T10:14:47.449Z,142.21
2022-09-22T10:24:47.744Z,116.71
2022-09-22T10:34:47.615Z,130.96
2022-09-22T10:44:49.038Z,100.91
2022-09-22T10:54:47.573Z,94.33
2022-09-22T11:04:47.708Z,150.57
2022-09-22T11:14:47.663Z,141.45
2022-09-22T11:24:47.664Z,98.80
2022-09-22T11:34:47.448Z,104.16
2022-09-22T11:44:47.469Z,161.09
2022-09-22T11:54:47.339Z,161.28
2022-09-22T12:04:48.505Z,159.43
2022-09-22T12:14:47.541Z,177.73
2022-09-22T12:24:47.511Z,161.26
2022-09-22T12:34:47.526Z,160.00
2022-09-22T12:44:47.548Z,146.75
2022-09-22T12:54:47.617Z,159.37
2022-09-22T13:04:47.639Z,176.84
2022-09-22T13:14:47.555Z,152.94
2022-09-22T13:24:47.651Z,127.14
2022-09-22T13:34:47.865Z,165.95
2022-09-22T13:44:47.954Z,143.28
2022-09-22T13:54:48.025Z,175.89
2022-09-22T14:04:47.953Z,175.34
2022-09-22T14:14:47.918Z,165.99
2022-09-22T14:24:48.301Z,139.14
2022-09-22T14:34:47.981Z,164.72
2022-09-22T14:44:47.900Z,171.14
2022-09-22T14:54:47.975Z,167.25
2022-09-22T15:04:48.111Z,175.33
2022-09-22T15:14:47.874Z,140.74
2022-09-22T15:24:47.816Z,125.14
2022-09-22T15:34:47.869Z,163.38
2022-09-22T15:44:48.170Z,148.90
2022-09-22T15:54:48.518Z,131.39
2022-09-22T16:04:48.265Z,133.84
2022-09-22T16:14:48.177Z,106.26
2022-09-22T16:24:48.240Z,137.58
2022-09-22T16:34:48.259Z,136.38
2022-09-22T16:44:48.170Z,171.74
2022-09-22T16:54:48.224Z,117.53
2022-09-22T17:04:48.184Z,103.36
2022-09-22T17:14:48.212Z,94.08
2022-09-22T17:24:48.245Z,93.26
2022-09-22T17:34:48.268Z,90.00
2022-09-22T17:44:48.352Z,90.00
2022-09-22T17:54:48.305Z,90.00
2022-09-22T18:04:48.485Z,90.00
2022-09-22T18:14:48.330Z,118.74
2022-09-22T18:24:48.282Z,179.02
2022-09-22T18:34:48.331Z,151.26
2022-09-22T18:44:48.320Z,135.00
2022-09-22T18:54:48.463Z,175.99
2022-09-22T19:04:48.483Z,166.85
2022-09-22T19:14:48.323Z,166.48
